sensor_id;sensor_type;location;lat;lon;timestamp;pressure;altitude;pressure_sealevel;temperature;humidity
69855;BME280;57146;48.140;16.304;2022-11-15T00:02:34;99654.28;;;5.54;100.00
69855;BME280;57146;48.140;16.304;2022-11-15T00:05:20;99645.94;;;5.52;100.00
69855;BME280;57146;48.140;16.304;2022-11-15T00:08:05;99644.38;;;5.56;100.00
69855;BME280;57146;48.140;16.304;2022-11-15T00:10:55;99646.47;;;5.54;100.00
69855;BME280;57146;48.140;16.304;2022-11-15T00:13:41;99630.53;;;5.50;100.00
69855;BME280;57146;48.140;16.304;2022-11-15T00:16:26;99636.28;;;5.52;100.00
69855;BME280;57146;48.140;16.304;2022-11-15T00:19:12;99638.91;;;5.58;100.00
69855;BME280;57146;48.140;16.304;2022-11-15T00:21:57;99629.22;;;5.58;100.00
69855;BME280;57146;48.140;16.304;2022-11-15T00:24:43;99626.66;;;5.63;100.00
69855;BME280;57146;48.140;16.304;2022-11-15T00:27:28;99624.81;;;5.59;100.00
69855;BME280;57146;48.140;16.304;2022-11-15T00:30:14;99632.13;;;5.57;100.00
69855;BME280;57146;48.140;16.304;2022-11-15T00:33:03;99621.41;;;5.58;100.00
69855;BME280;57146;48.140;16.304;2022-11-15T00:35:49;99635.28;;;5.59;100.00
69855;BME280;57146;48.140;16.304;2022-11-15T00:38:36;99633.41;;;5.54;100.00
69855;BME280;57146;48.140;16.304;2022-11-15T00:41:23;99626.63;;;5.48;100.00
69855;BME280;57146;48.140;16.304;2022-11-15T00:44:08;99612.78;;;5.52;100.00
69855;BME280;57146;48.140;16.304;2022-11-15T00:46:54;99620.09;;;5.56;100.00
69855;BME280;57146;48.140;16.304;2022-11-15T00:49:39;99612.25;;;5.50;100.00
69855;BME280;57146;48.140;16.304;2022-11-15T00:52:24;99611.22;;;5.51;100.00
69855;BME280;57146;48.140;16.304;2022-11-15T00:55:17;99608.63;;;5.57;100.00
69855;BME280;57146;48.140;16.304;2022-11-15T00:58:03;99603.13;;;5.58;100.00
69855;BME280;57146;48.140;16.304;2022-11-15T01:00:49;99595.56;;;5.57;100.00
69855;BME280;57146;48.140;16.304;2022-11-15T01:03:35;99600.50;;;5.58;100.00
69855;BME280;57146;48.140;16.304;2022-11-15T01:06:21;99599.22;;;5.61;100.00
69855;BME280;57146;48.140;16.304;2022-11-15T01:09:06;99595.28;;;5.58;100.00
69855;BME280;57146;48.140;16.304;2022-11-15T01:11:52;99591.91;;;5.58;100.00
69855;BME280;57146;48.140;16.304;2022-11-15T01:14:37;99598.72;;;5.59;100.00
69855;BME280;57146;48.140;16.304;2022-11-15T01:17:22;99587.22;;;5.60;100.00
69855;BME280;57146;48.140;16.304;2022-11-15T01:20:08;99595.03;;;5.60;100.00
69855;BME280;57146;48.140;16.304;2022-11-15T01:22:55;99596.09;;;5.64;100.00
69855;BME280;57146;48.140;16.304;2022-11-15T01:25:40;99593.75;;;5.62;100.00
69855;BME280;57146;48.140;16.304;2022-11-15T01:28:32;99584.88;;;5.63;100.00
69855;BME280;57146;48.140;16.304;2022-11-15T01:31:19;99584.09;;;5.63;100.00
69855;BME280;57146;48.140;16.304;2022-11-15T01:34:04;99584.59;;;5.65;100.00
69855;BME280;57146;48.140;16.304;2022-11-15T01:36:50;99578.59;;;5.64;100.00
69855;BME280;57146;48.140;16.304;2022-11-15T01:39:35;99587.22;;;5.65;100.00
69855;BME280;57146;48.140;16.304;2022-11-15T01:42:20;99582.25;;;5.68;100.00
69855;BME280;57146;48.140;16.304;2022-11-15T01:45:13;99575.97;;;5.59;100.00
69855;BME280;57146;48.140;16.304;2022-11-15T01:47:59;99572.84;;;5.62;100.00
69855;BME280;57146;48.140;16.304;2022-11-15T01:50:44;99579.88;;;5.57;100.00
69855;BME280;57146;48.140;16.304;2022-11-15T01:53:32;99575.72;;;5.61;100.00
69855;BME280;57146;48.140;16.304;2022-11-15T01:56:22;99567.38;;;5.59;100.00
69855;BME280;57146;48.140;16.304;2022-11-15T01:59:08;99563.94;;;5.58;100.00
69855;BME280;57146;48.140;16.304;2022-11-15T02:01:55;99565.81;;;5.63;100.00
69855;BME280;57146;48.140;16.304;2022-11-15T02:04:43;99569.97;;;5.59;100.00
69855;BME280;57146;48.140;16.304;2022-11-15T02:07:30;99583.03;;;5.59;100.00
69855;BME280;57146;48.140;16.304;2022-11-15T02:10:19;99577.28;;;5.62;100.00
69855;BME280;57146;48.140;16.304;2022-11-15T02:13:05;99568.94;;;5.60;100.00
69855;BME280;57146;48.140;16.304;2022-11-15T02:28:22;99557.97;;;5.63;100.00
69855;BME280;57146;48.140;16.304;2022-11-15T02:34:28;99570.50;;;5.71;100.00
69855;BME280;57146;48.140;16.304;2022-11-15T02:37:35;99563.44;;;5.71;100.00
69855;BME280;57146;48.140;16.304;2022-11-15T02:47:00;99574.69;;;5.77;100.00
69855;BME280;57146;48.140;16.304;2022-11-15T02:49:52;99574.44;;;5.73;100.00
69855;BME280;57146;48.140;16.304;2022-11-15T02:52:38;99569.22;;;5.73;100.00
69855;BME280;57146;48.140;16.304;2022-11-15T02:58:29;99566.06;;;5.71;100.00
69855;BME280;57146;48.140;16.304;2022-11-15T03:07:57;99555.34;;;5.68;100.00
69855;BME280;57146;48.140;16.304;2022-11-15T03:11:19;99542.81;;;5.70;100.00
69855;BME280;57146;48.140;16.304;2022-11-15T03:20:01;99530.78;;;5.69;100.00
69855;BME280;57146;48.140;16.304;2022-11-15T03:22:49;99535.50;;;5.72;100.00
69855;BME280;57146;48.140;16.304;2022-11-15T03:25:41;99532.66;;;5.73;100.00
69855;BME280;57146;48.140;16.304;2022-11-15T03:28:43;99535.75;;;5.75;100.00
69855;BME280;57146;48.140;16.304;2022-11-15T03:31:33;99531.88;;;5.73;100.00
69855;BME280;57146;48.140;16.304;2022-11-15T03:37:22;99520.59;;;5.72;100.00
69855;BME280;57146;48.140;16.304;2022-11-15T03:40:09;99519.31;;;5.75;100.00
69855;BME280;57146;48.140;16.304;2022-11-15T03:43:23;99521.94;;;5.70;100.00
69855;BME280;57146;48.140;16.304;2022-11-15T03:46:25;99518.00;;;5.67;100.00
69855;BME280;57146;48.140;16.304;2022-11-15T03:49:34;99517.72;;;5.69;100.00
69855;BME280;57146;48.140;16.304;2022-11-15T03:52:23;99511.22;;;5.66;100.00
69855;BME280;57146;48.140;16.304;2022-11-15T03:55:13;99511.72;;;5.68;100.00
69855;BME280;57146;48.140;16.304;2022-11-15T03:58:00;99508.34;;;5.63;100.00
69855;BME280;57146;48.140;16.304;2022-11-15T04:00:46;99506.22;;;5.55;100.00
69855;BME280;57146;48.140;16.304;2022-11-15T04:03:31;99509.91;;;5.53;100.00
69855;BME280;57146;48.140;16.304;2022-11-15T04:06:18;99497.88;;;5.58;100.00
69855;BME280;57146;48.140;16.304;2022-11-15T04:09:03;99507.03;;;5.50;100.00
69855;BME280;57146;48.140;16.304;2022-11-15T04:11:49;99510.41;;;5.50;100.00
69855;BME280;57146;48.140;16.304;2022-11-15T04:14:34;99503.91;;;5.48;100.00
69855;BME280;57146;48.140;16.304;2022-11-15T04:17:19;99501.03;;;5.49;100.00
69855;BME280;57146;48.140;16.304;2022-11-15T04:20:08;99495.53;;;5.51;100.00
69855;BME280;57146;48.140;16.304;2022-11-15T04:22:55;99493.19;;;5.55;100.00
69855;BME280;57146;48.140;16.304;2022-11-15T04:25:42;99491.88;;;5.52;100.00
69855;BME280;57146;48.140;16.304;2022-11-15T04:28:28;99498.94;;;5.51;100.00
69855;BME280;57146;48.140;16.304;2022-11-15T04:31:14;99498.94;;;5.57;100.00
69855;BME280;57146;48.140;16.304;2022-11-15T04:33:59;99498.13;;;5.51;100.00
69855;BME280;57146;48.140;16.304;2022-11-15T04:36:44;99491.13;;;5.51;100.00
69855;BME280;57146;48.140;16.304;2022-11-15T04:39:30;99487.44;;;5.52;100.00
69855;BME280;57146;48.140;16.304;2022-11-15T04:42:15;99492.41;;;5.54;100.00
69855;BME280;57146;48.140;16.304;2022-11-15T04:45:00;99485.34;;;5.55;100.00
69855;BME280;57146;48.140;16.304;2022-11-15T04:47:46;99478.59;;;5.59;100.00
69855;BME280;57146;48.140;16.304;2022-11-15T04:50:31;99474.41;;;5.52;100.00
69855;BME280;57146;48.140;16.304;2022-11-15T04:53:16;99472.84;;;5.51;100.00
69855;BME280;57146;48.140;16.304;2022-11-15T04:56:02;99466.03;;;5.61;100.00
69855;BME280;57146;48.140;16.304;2022-11-15T04:58:51;99463.44;;;5.56;100.00
69855;BME280;57146;48.140;16.304;2022-11-15T05:01:36;99463.44;;;5.56;100.00
69855;BME280;57146;48.140;16.304;2022-11-15T05:04:28;99461.09;;;5.59;100.00
69855;BME280;57146;48.140;16.304;2022-11-15T05:07:14;99470.19;;;5.62;100.00
69855;BME280;57146;48.140;16.304;2022-11-15T05:09:59;99469.94;;;5.63;100.00
69855;BME280;57146;48.140;16.304;2022-11-15T05:12:46;99465.78;;;5.62;100.00
69855;BME280;57146;48.140;16.304;2022-11-15T05:15:38;99464.97;;;5.62;100.00
69855;BME280;57146;48.140;16.304;2022-11-15T05:18:24;99457.41;;;5.65;100.00
69855;BME280;57146;48.140;16.304;2022-11-15T05:21:13;99462.09;;;5.68;100.00
69855;BME280;57146;48.140;16.304;2022-11-15T05:23:59;99456.88;;;5.68;100.00
69855;BME280;57146;48.140;16.304;2022-11-15T05:26:44;99458.72;;;5.68;100.00
69855;BME280;57146;48.140;16.304;2022-11-15T05:29:30;99458.19;;;5.71;100.00
69855;BME280;57146;48.140;16.304;2022-11-15T05:32:17;99451.41;;;5.70;100.00
69855;BME280;57146;48.140;16.304;2022-11-15T05:35:05;99456.34;;;5.71;100.00
69855;BME280;57146;48.140;16.304;2022-11-15T05:37:52;99452.97;;;5.71;100.00
69855;BME280;57146;48.140;16.304;2022-11-15T05:40:38;99448.53;;;5.71;100.00
69855;BME280;57146;48.140;16.304;2022-11-15T05:43:24;99444.84;;;5.72;100.00
69855;BME280;57146;48.140;16.304;2022-11-15T05:46:10;99448.53;;;5.76;100.00
69855;BME280;57146;48.140;16.304;2022-11-15T05:49:23;99437.28;;;5.76;100.00
69855;BME280;57146;48.140;16.304;2022-11-15T05:52:12;99442.25;;;5.72;100.00
69855;BME280;57146;48.140;16.304;2022-11-15T05:54:59;99439.13;;;5.70;100.00
69855;BME280;57146;48.140;16.304;2022-11-15T05:57:44;99442.53;;;5.66;100.00
69855;BME280;57146;48.140;16.304;2022-11-15T06:00:30;99446.69;;;5.72;100.00
69855;BME280;57146;48.140;16.304;2022-11-15T06:03:15;99447.47;;;5.72;100.00
69855;BME280;57146;48.140;16.304;2022-11-15T06:06:00;99444.34;;;5.70;100.00
69855;BME280;57146;48.140;16.304;2022-11-15T06:08:46;99440.94;;;5.65;100.00
69855;BME280;57146;48.140;16.304;2022-11-15T06:11:31;99448.81;;;5.70;100.00
69855;BME280;57146;48.140;16.304;2022-11-15T06:14:16;99452.97;;;5.66;100.00
69855;BME280;57146;48.140;16.304;2022-11-15T06:17:01;99451.13;;;5.61;100.00
69855;BME280;57146;48.140;16.304;2022-11-15T06:19:54;99458.72;;;5.58;100.00
69855;BME280;57146;48.140;16.304;2022-11-15T06:22:40;99448.03;;;5.69;100.00
69855;BME280;57146;48.140;16.304;2022-11-15T06:25:26;99447.75;;;5.66;100.00
69855;BME280;57146;48.140;16.304;2022-11-15T06:28:12;99447.22;;;5.69;100.00
69855;BME280;57146;48.140;16.304;2022-11-15T06:31:10;99452.19;;;5.65;100.00
69855;BME280;57146;48.140;16.304;2022-11-15T06:33:55;99451.13;;;5.61;100.00
69855;BME280;57146;48.140;16.304;2022-11-15T06:36:41;99458.19;;;5.61;100.00
69855;BME280;57146;48.140;16.304;2022-11-15T06:39:26;99460.31;;;5.59;100.00
69855;BME280;57146;48.140;16.304;2022-11-15T06:42:11;99458.72;;;5.63;100.00
69855;BME280;57146;48.140;16.304;2022-11-15T06:44:57;99457.16;;;5.67;100.00
69855;BME280;57146;48.140;16.304;2022-11-15T06:47:46;99461.31;;;5.68;100.00
69855;BME280;57146;48.140;16.304;2022-11-15T06:50:32;99463.44;;;5.66;100.00
69855;BME280;57146;48.140;16.304;2022-11-15T06:53:19;99463.94;;;5.68;100.00
69855;BME280;57146;48.140;16.304;2022-11-15T06:56:06;99456.63;;;5.70;100.00
69855;BME280;57146;48.140;16.304;2022-11-15T06:58:51;99467.09;;;5.70;100.00
69855;BME280;57146;48.140;16.304;2022-11-15T07:01:37;99463.69;;;5.64;100.00
69855;BME280;57146;48.140;16.304;2022-11-15T07:04:23;99470.72;;;5.64;100.00
69855;BME280;57146;48.140;16.304;2022-11-15T07:07:09;99459.50;;;5.63;100.00
69855;BME280;57146;48.140;16.304;2022-11-15T07:09:54;99463.94;;;5.63;100.00
69855;BME280;57146;48.140;16.304;2022-11-15T07:12:40;99460.53;;;5.67;100.00
69855;BME280;57146;48.140;16.304;2022-11-15T07:15:25;99449.84;;;5.64;100.00
69855;BME280;57146;48.140;16.304;2022-11-15T07:18:11;99453.50;;;5.68;100.00
69855;BME280;57146;48.140;16.304;2022-11-15T07:21:00;99450.38;;;5.66;100.00
69855;BME280;57146;48.140;16.304;2022-11-15T07:23:46;99447.75;;;5.66;100.00
69855;BME280;57146;48.140;16.304;2022-11-15T07:26:31;99445.66;;;5.63;100.00
69855;BME280;57146;48.140;16.304;2022-11-15T07:29:16;99447.22;;;5.69;100.00
69855;BME280;57146;48.140;16.304;2022-11-15T07:32:02;99444.34;;;5.70;100.00
69855;BME280;57146;48.140;16.304;2022-11-15T07:34:47;99433.38;;;5.73;100.00
69855;BME280;57146;48.140;16.304;2022-11-15T07:37:32;99431.56;;;5.74;100.00
69855;BME280;57146;48.140;16.304;2022-11-15T07:40:18;99433.63;;;5.77;100.00
69855;BME280;57146;48.140;16.304;2022-11-15T07:43:05;99430.75;;;5.79;100.00
69855;BME280;57146;48.140;16.304;2022-11-15T07:45:50;99434.69;;;5.81;100.00
69855;BME280;57146;48.140;16.304;2022-11-15T07:48:42;99429.69;;;5.80;100.00
69855;BME280;57146;48.140;16.304;2022-11-15T07:51:29;99433.63;;;5.82;100.00
69855;BME280;57146;48.140;16.304;2022-11-15T07:54:14;99442.25;;;5.83;100.00
69855;BME280;57146;48.140;16.304;2022-11-15T07:57:00;99437.28;;;5.86;100.00
69855;BME280;57146;48.140;16.304;2022-11-15T07:59:51;99443.53;;;5.85;100.00
69855;BME280;57146;48.140;16.304;2022-11-15T08:02:37;99438.59;;;5.89;100.00
69855;BME280;57146;48.140;16.304;2022-11-15T08:05:23;99435.19;;;5.88;100.00
69855;BME280;57146;48.140;16.304;2022-11-15T08:08:10;99429.44;;;5.86;100.00
69855;BME280;57146;48.140;16.304;2022-11-15T08:10:59;99430.47;;;5.90;100.00
69855;BME280;57146;48.140;16.304;2022-11-15T08:13:46;99432.56;;;5.88;100.00
69855;BME280;57146;48.140;16.304;2022-11-15T08:16:31;99427.06;;;5.90;100.00
69855;BME280;57146;48.140;16.304;2022-11-15T08:19:16;99422.13;;;5.88;100.00
69855;BME280;57146;48.140;16.304;2022-11-15T08:22:02;99425.81;;;5.92;100.00
69855;BME280;57146;48.140;16.304;2022-11-15T08:24:47;99435.44;;;5.92;100.00
69855;BME280;57146;48.140;16.304;2022-11-15T08:27:33;99433.13;;;5.95;100.00
69855;BME280;57146;48.140;16.304;2022-11-15T08:30:19;99421.59;;;5.91;100.00
69855;BME280;57146;48.140;16.304;2022-11-15T08:33:05;99420.03;;;5.95;100.00
69855;BME280;57146;48.140;16.304;2022-11-15T08:35:51;99416.91;;;5.98;100.00
69855;BME280;57146;48.140;16.304;2022-11-15T08:38:36;99413.53;;;5.98;100.00
69855;BME280;57146;48.140;16.304;2022-11-15T08:41:33;99415.31;;;5.97;100.00
69855;BME280;57146;48.140;16.304;2022-11-15T08:44:18;99424.50;;;5.95;100.00
69855;BME280;57146;48.140;16.304;2022-11-15T08:47:04;99422.13;;;5.93;100.00
69855;BME280;57146;48.140;16.304;2022-11-15T08:49:49;99424.22;;;5.96;100.00
69855;BME280;57146;48.140;16.304;2022-11-15T08:52:35;99419.75;;;5.92;100.00
69855;BME280;57146;48.140;16.304;2022-11-15T08:55:21;99419.53;;;5.93;100.00
69855;BME280;57146;48.140;16.304;2022-11-15T08:58:08;99420.56;;;5.97;100.00
69855;BME280;57146;48.140;16.304;2022-11-15T09:00:54;99420.56;;;5.97;100.00
69855;BME280;57146;48.140;16.304;2022-11-15T09:03:40;99416.38;;;5.96;100.00
69855;BME280;57146;48.140;16.304;2022-11-15T09:06:25;99420.81;;;6.01;100.00
69855;BME280;57146;48.140;16.304;2022-11-15T09:09:11;99416.38;;;6.02;100.00
69855;BME280;57146;48.140;16.304;2022-11-15T09:11:56;99406.97;;;6.06;100.00
69855;BME280;57146;48.140;16.304;2022-11-15T09:14:47;99406.19;;;6.05;100.00
69855;BME280;57146;48.140;16.304;2022-11-15T09:17:32;99401.22;;;6.09;100.00
69855;BME280;57146;48.140;16.304;2022-11-15T09:20:17;99402.50;;;6.06;100.00
69855;BME280;57146;48.140;16.304;2022-11-15T09:23:04;99405.38;;;6.10;100.00
69855;BME280;57146;48.140;16.304;2022-11-15T09:25:50;99401.72;;;6.11;100.00
69855;BME280;57146;48.140;16.304;2022-11-15T09:28:36;99400.13;;;6.15;100.00
69855;BME280;57146;48.140;16.304;2022-11-15T09:31:22;99396.72;;;6.14;100.00
69855;BME280;57146;48.140;16.304;2022-11-15T09:34:07;99392.81;;;6.12;100.00
69855;BME280;57146;48.140;16.304;2022-11-15T09:36:52;99388.63;;;6.16;100.00
69855;BME280;57146;48.140;16.304;2022-11-15T09:39:38;99373.72;;;6.16;100.00
69855;BME280;57146;48.140;16.304;2022-11-15T09:42:48;99376.59;;;6.20;100.00
69855;BME280;57146;48.140;16.304;2022-11-15T09:45:35;99372.16;;;6.15;100.00
69855;BME280;57146;48.140;16.304;2022-11-15T09:48:44;99369.53;;;6.15;100.00
69855;BME280;57146;48.140;16.304;2022-11-15T09:51:28;99369.28;;;6.17;100.00
69855;BME280;57146;48.140;16.304;2022-11-15T09:54:09;99361.94;;;6.19;100.00
69855;BME280;57146;48.140;16.304;2022-11-15T09:57:52;99357.00;;;6.17;100.00
69855;BME280;57146;48.140;16.304;2022-11-15T10:03:01;99354.09;;;6.19;100.00
69855;BME280;57146;48.140;16.304;2022-11-15T10:05:38;99342.63;;;6.20;100.00
69855;BME280;57146;48.140;16.304;2022-11-15T10:11:28;99342.09;;;6.18;100.00
69855;BME280;57146;48.140;16.304;2022-11-15T10:14:25;99336.84;;;6.23;100.00
69855;BME280;57146;48.140;16.304;2022-11-15T10:22:40;99327.97;;;6.19;100.00
69855;BME280;57146;48.140;16.304;2022-11-15T10:27:35;99306.56;;;6.17;100.00
69855;BME280;57146;48.140;16.304;2022-11-15T10:30:04;99301.81;;;6.19;100.00
69855;BME280;57146;48.140;16.304;2022-11-15T10:32:32;99303.41;;;6.20;100.00
69855;BME280;57146;48.140;16.304;2022-11-15T10:35:16;99303.66;;;6.23;100.00
69855;BME280;57146;48.140;16.304;2022-11-15T10:37:44;99299.44;;;6.22;100.00
69855;BME280;57146;48.140;16.304;2022-11-15T10:42:44;99295.00;;;6.28;100.00
69855;BME280;57146;48.140;16.304;2022-11-15T10:45:29;99292.34;;;6.33;100.00
69855;BME280;57146;48.140;16.304;2022-11-15T10:50:46;99283.72;;;6.33;100.00
69855;BME280;57146;48.140;16.304;2022-11-15T10:53:39;99279.25;;;6.38;100.00
69855;BME280;57146;48.140;16.304;2022-11-15T10:56:13;99272.19;;;6.39;100.00
69855;BME280;57146;48.140;16.304;2022-11-15T10:58:43;99269.31;;;6.40;100.00
69855;BME280;57146;48.140;16.304;2022-11-15T11:01:16;99275.56;;;6.44;100.00
69855;BME280;57146;48.140;16.304;2022-11-15T11:04:06;99273.72;;;6.45;100.00
69855;BME280;57146;48.140;16.304;2022-11-15T11:06:57;99266.38;;;6.47;100.00
69855;BME280;57146;48.140;16.304;2022-11-15T11:09:33;99262.44;;;6.50;100.00
69855;BME280;57146;48.140;16.304;2022-11-15T11:12:03;99251.97;;;6.50;100.00
69855;BME280;57146;48.140;16.304;2022-11-15T11:14:33;99249.88;;;6.52;100.00
69855;BME280;57146;48.140;16.304;2022-11-15T11:17:43;99242.25;;;6.55;100.00
69855;BME280;57146;48.140;16.304;2022-11-15T11:20:29;99245.41;;;6.52;100.00
69855;BME280;57146;48.140;16.304;2022-11-15T11:23:26;99238.34;;;6.53;100.00
69855;BME280;57146;48.140;16.304;2022-11-15T11:29:16;99240.91;;;6.58;100.00
69855;BME280;57146;48.140;16.304;2022-11-15T11:37:37;99223.38;;;6.63;100.00
69855;BME280;57146;48.140;16.304;2022-11-15T11:40:34;99220.47;;;6.65;100.00
69855;BME280;57146;48.140;16.304;2022-11-15T11:52:08;99196.88;;;6.70;100.00
69855;BME280;57146;48.140;16.304;2022-11-15T11:55:20;99189.53;;;6.72;100.00
69855;BME280;57146;48.140;16.304;2022-11-15T12:00:55;99179.03;;;6.77;100.00
69855;BME280;57146;48.140;16.304;2022-11-15T12:03:45;99182.72;;;6.76;100.00
69855;BME280;57146;48.140;16.304;2022-11-15T12:14:49;99163.34;;;6.77;100.00
69855;BME280;57146;48.140;16.304;2022-11-15T12:17:22;99153.66;;;6.78;100.00
69855;BME280;57146;48.140;16.304;2022-11-15T12:19:50;99158.34;;;6.81;100.00
69855;BME280;57146;48.140;16.304;2022-11-15T12:22:27;99144.47;;;6.80;100.00
69855;BME280;57146;48.140;16.304;2022-11-15T12:25:02;99137.88;;;6.83;100.00
69855;BME280;57146;48.140;16.304;2022-11-15T12:27:37;99124.31;;;6.81;100.00
69855;BME280;57146;48.140;16.304;2022-11-15T12:30:11;99124.31;;;6.81;100.00
69855;BME280;57146;48.140;16.304;2022-11-15T12:32:49;99119.63;;;6.78;100.00
69855;BME280;57146;48.140;16.304;2022-11-15T12:35:34;99126.16;;;6.80;100.00
69855;BME280;57146;48.140;16.304;2022-11-15T12:38:01;99126.66;;;6.82;100.00
69855;BME280;57146;48.140;16.304;2022-11-15T12:40:34;99128.22;;;6.83;100.00
69855;BME280;57146;48.140;16.304;2022-11-15T12:43:07;99121.94;;;6.84;100.00
69855;BME280;57146;48.140;16.304;2022-11-15T12:45:42;99118.53;;;6.84;100.00
69855;BME280;57146;48.140;16.304;2022-11-15T12:56:19;99110.91;;;6.87;100.00
69855;BME280;57146;48.140;16.304;2022-11-15T12:58:48;99105.47;;;6.84;100.00
69855;BME280;57146;48.140;16.304;2022-11-15T13:07:06;99096.84;;;6.83;100.00
69855;BME280;57146;48.140;16.304;2022-11-15T13:09:50;99095.75;;;6.84;100.00
69855;BME280;57146;48.140;16.304;2022-11-15T13:14:58;99083.16;;;6.86;100.00
69855;BME280;57146;48.140;16.304;2022-11-15T13:17:31;99077.44;;;6.84;100.00
69855;BME280;57146;48.140;16.304;2022-11-15T13:20:08;99077.72;;;6.83;100.00
69855;BME280;57146;48.140;16.304;2022-11-15T13:22:43;99075.06;;;6.88;100.00
69855;BME280;57146;48.140;16.304;2022-11-15T13:30:36;99071.59;;;6.92;100.00
69855;BME280;57146;48.140;16.304;2022-11-15T13:33:14;99066.34;;;6.92;100.00
69855;BME280;57146;48.140;16.304;2022-11-15T13:35:47;99066.09;;;6.94;100.00
69855;BME280;57146;48.140;16.304;2022-11-15T13:38:29;99066.56;;;6.96;100.00
69855;BME280;57146;48.140;16.304;2022-11-15T13:40:59;99056.09;;;6.96;100.00
69855;BME280;57146;48.140;16.304;2022-11-15T13:43:34;99061.06;;;6.98;100.00
69855;BME280;57146;48.140;16.304;2022-11-15T13:46:24;99051.09;;;7.00;100.00
69855;BME280;57146;48.140;16.304;2022-11-15T13:48:58;99048.44;;;7.05;100.00
69855;BME280;57146;48.140;16.304;2022-11-15T13:51:42;99042.97;;;7.01;100.00
69855;BME280;57146;48.140;16.304;2022-11-15T13:56:53;99047.84;;;7.08;100.00
69855;BME280;57146;48.140;16.304;2022-11-15T13:59:26;99030.09;;;7.05;100.00
69855;BME280;57146;48.140;16.304;2022-11-15T14:01:56;99035.34;;;7.05;100.00
69855;BME280;57146;48.140;16.304;2022-11-15T14:04:26;99024.88;;;7.05;100.00
69855;BME280;57146;48.140;16.304;2022-11-15T14:07:00;99013.59;;;7.04;100.00
69855;BME280;57146;48.140;16.304;2022-11-15T14:09:33;99017.03;;;7.05;100.00
69855;BME280;57146;48.140;16.304;2022-11-15T14:12:02;99007.81;;;7.07;100.00
69855;BME280;57146;48.140;16.304;2022-11-15T14:14:29;99013.34;;;7.06;100.00
69855;BME280;57146;48.140;16.304;2022-11-15T14:17:00;99008.88;;;7.06;100.00
69855;BME280;57146;48.140;16.304;2022-11-15T14:22:10;99022.19;;;7.10;100.00
69855;BME280;57146;48.140;16.304;2022-11-15T14:24:39;99018.22;;;7.12;100.00
69855;BME280;57146;48.140;16.304;2022-11-15T14:27:24;99011.19;;;7.08;100.00
69855;BME280;57146;48.140;16.304;2022-11-15T14:29:52;99015.88;;;7.11;100.00
69855;BME280;57146;48.140;16.304;2022-11-15T14:32:37;99020.56;;;7.14;100.00
69855;BME280;57146;48.140;16.304;2022-11-15T14:35:13;99012.69;;;7.14;100.00
69855;BME280;57146;48.140;16.304;2022-11-15T14:37:41;99011.16;;;7.13;100.00
69855;BME280;57146;48.140;16.304;2022-11-15T14:40:18;99009.81;;;7.15;100.00
69855;BME280;57146;48.140;16.304;2022-11-15T14:42:47;99001.38;;;7.18;100.00
69855;BME280;57146;48.140;16.304;2022-11-15T14:45:20;98999.25;;;7.20;100.00
69855;BME280;57146;48.140;16.304;2022-11-15T14:47:47;98994.22;;;7.24;100.00
69855;BME280;57146;48.140;16.304;2022-11-15T14:50:17;98991.41;;;7.20;100.00
69855;BME280;57146;48.140;16.304;2022-11-15T14:52:45;98999.25;;;7.20;100.00
69855;BME280;57146;48.140;16.304;2022-11-15T14:55:24;98989.56;;;7.21;100.00
69855;BME280;57146;48.140;16.304;2022-11-15T14:57:54;98989.56;;;7.21;100.00
69855;BME280;57146;48.140;16.304;2022-11-15T15:00:26;98981.22;;;7.19;100.00
69855;BME280;57146;48.140;16.304;2022-11-15T15:03:06;98978.63;;;7.19;100.00
69855;BME280;57146;48.140;16.304;2022-11-15T15:05:39;98982.47;;;7.22;100.00
69855;BME280;57146;48.140;16.304;2022-11-15T15:08:09;98983.75;;;7.24;100.00
69855;BME280;57146;48.140;16.304;2022-11-15T15:10:47;98976.97;;;7.23;100.00
69855;BME280;57146;48.140;16.304;2022-11-15T15:13:20;98977.19;;;7.27;100.00
69855;BME280;57146;48.140;16.304;2022-11-15T15:15:50;98982.13;;;7.28;100.00
69855;BME280;57146;48.140;16.304;2022-11-15T15:18:19;98985.81;;;7.27;100.00
69855;BME280;57146;48.140;16.304;2022-11-15T15:20:53;98979.81;;;7.27;100.00
69855;BME280;57146;48.140;16.304;2022-11-15T15:23:21;98976.88;;;7.28;100.00
69855;BME280;57146;48.140;16.304;2022-11-15T15:25:48;98967.50;;;7.27;100.00
69855;BME280;57146;48.140;16.304;2022-11-15T15:28:15;98971.44;;;7.25;100.00
69855;BME280;57146;48.140;16.304;2022-11-15T15:30:43;98965.13;;;7.26;100.00
69855;BME280;57146;48.140;16.304;2022-11-15T15:33:17;98969.59;;;7.25;100.00
69855;BME280;57146;48.140;16.304;2022-11-15T15:36:17;98959.91;;;7.26;100.00
69855;BME280;57146;48.140;16.304;2022-11-15T15:38:44;98959.63;;;7.27;100.00
69855;BME280;57146;48.140;16.304;2022-11-15T15:41:13;98962.03;;;7.24;100.00
69855;BME280;57146;48.140;16.304;2022-11-15T15:43:40;98962.81;;;7.24;100.00
69855;BME280;57146;48.140;16.304;2022-11-15T15:46:11;98963.03;;;7.28;100.00
69855;BME280;57146;48.140;16.304;2022-11-15T15:48:39;98955.69;;;7.30;100.00
69855;BME280;57146;48.140;16.304;2022-11-15T15:51:06;98953.25;;;7.33;100.00
69855;BME280;57146;48.140;16.304;2022-11-15T15:53:45;98948.50;;;7.35;100.00
69855;BME280;57146;48.140;16.304;2022-11-15T15:56:12;98954.31;;;7.32;100.00
69855;BME280;57146;48.140;16.304;2022-11-15T15:58:39;98948.50;;;7.35;100.00
69855;BME280;57146;48.140;16.304;2022-11-15T16:01:06;98946.41;;;7.37;100.00
69855;BME280;57146;48.140;16.304;2022-11-15T16:03:33;98935.16;;;7.37;100.00
69855;BME280;57146;48.140;16.304;2022-11-15T16:06:00;98939.09;;;7.34;100.00
69855;BME280;57146;48.140;16.304;2022-11-15T16:08:27;98938.03;;;7.35;100.00
69855;BME280;57146;48.140;16.304;2022-11-15T16:11:14;98941.63;;;7.39;100.00